Terminal Aerodrome Forecast
Issued by NWS Houston/Galveston, TX

Home | Current Version | Previous Version | Text Only | Print | Product List | Glossary On
Versions: 1 2 3 4 5 6 7 8 9 10 11 12 13 14 15 16 17 18 19 20 21 22 23 24 25
000
FTUS44 KHGX 270107 AAA
TAFCLL
TAF AMD
KCLL 270107Z 2701/2724 17014G20KT P6SM SKC
     FM270200 16007KT P6SM SCT250
     FM271000 18003KT P6SM SCT010
     FM271500 19008KT P6SM FEW050 SCT250=

USA.gov is the U.S. government's official web portal to all federal, state and local government web resources and services.